createdAt,value
2018-05-25T00:01:31.667Z,19.10
2018-05-25T00:03:59.965Z,17.67
2018-05-25T00:06:28.220Z,17.93
2018-05-25T00:08:56.471Z,17.53
2018-05-25T00:11:25.515Z,16.30
2018-05-25T00:13:53.764Z,16.10
2018-05-25T00:16:22.021Z,16.77
2018-05-25T00:18:50.300Z,16.70
2018-05-25T00:21:18.561Z,15.80
2018-05-25T00:23:46.812Z,16.07
2018-05-25T00:26:15.088Z,16.50
2018-05-25T00:28:43.352Z,15.80
2018-05-25T00:31:11.597Z,15.10
2018-05-25T00:33:40.184Z,17.73
2018-05-25T00:36:08.441Z,17.60
2018-05-25T00:38:36.699Z,16.77
2018-05-25T00:41:04.971Z,17.80
2018-05-25T00:43:33.223Z,16.23
2018-05-25T00:46:02.253Z,18.17
2018-05-25T00:48:30.532Z,17.70
2018-05-25T00:50:58.784Z,18.57
2018-05-25T00:53:28.109Z,17.63
2018-05-25T00:55:56.479Z,16.57
2018-05-25T00:58:25.504Z,17.30
2018-05-25T01:00:53.853Z,17.90
2018-05-25T01:03:22.128Z,18.07
2018-05-25T01:05:50.381Z,17.70
2018-05-25T01:08:19.456Z,18.73
2018-05-25T01:10:48.051Z,19.23
2018-05-25T01:13:16.328Z,18.53
2018-05-25T01:15:44.584Z,28.60
2018-05-25T01:18:14.263Z,24.73
2018-05-25T01:20:42.521Z,23.90
2018-05-25T01:23:10.797Z,25.53
2018-05-25T01:25:39.848Z,22.67
2018-05-25T01:28:08.091Z,20.43
2018-05-25T01:30:36.348Z,21.80
2018-05-25T01:33:05.428Z,22.70
2018-05-25T01:35:33.736Z,21.17
2018-05-25T01:38:01.996Z,19.13
2018-05-25T01:40:31.117Z,19.80
2018-05-25T01:42:59.388Z,21.50
2018-05-25T01:45:28.315Z,21.40
2018-05-25T01:47:56.604Z,22.83
2018-05-25T01:50:24.861Z,24.10
2018-05-25T01:52:53.112Z,22.87
2018-05-25T01:55:21.639Z,23.63
2018-05-25T01:57:49.900Z,21.43
2018-05-25T02:00:18.163Z,21.60
2018-05-25T02:02:46.751Z,22.40
2018-05-25T02:05:15.000Z,23.17
2018-05-25T02:07:43.268Z,20.83
2018-05-25T02:10:12.331Z,19.73
2018-05-25T02:12:40.603Z,20.80
2018-05-25T02:15:08.863Z,22.37
2018-05-25T02:17:37.827Z,22.17
2018-05-25T02:20:06.850Z,24.27
2018-05-25T02:22:35.108Z,23.93
2018-05-25T02:25:03.656Z,24.63
2018-05-25T02:27:31.911Z,24.60
2018-05-25T02:30:00.211Z,23.37
2018-05-25T02:32:29.444Z,22.80
2018-05-25T02:34:57.684Z,26.47
2018-05-25T02:37:25.987Z,25.53
2018-05-25T02:39:54.260Z,24.00
2018-05-25T02:42:22.516Z,24.50
2018-05-25T02:44:50.781Z,26.13
2018-05-25T02:47:19.756Z,25.17
2018-05-25T02:49:48.013Z,25.27
2018-05-25T02:52:16.260Z,25.37
2018-05-25T02:54:44.540Z,26.07
2018-05-25T02:57:13.047Z,26.30
2018-05-25T02:59:41.268Z,26.47
2018-05-25T03:02:10.300Z,27.70
2018-05-25T03:04:38.562Z,28.03
2018-05-25T03:07:06.812Z,29.93
2018-05-25T03:09:35.305Z,27.60
2018-05-25T03:12:03.548Z,28.97
2018-05-25T03:14:32.464Z,30.17
2018-05-25T03:17:01.834Z,28.27
2018-05-25T03:19:30.032Z,32.00
2018-05-25T03:21:58.283Z,32.43
2018-05-25T03:24:27.333Z,32.13
2018-05-25T03:26:56.496Z,35.37
2018-05-25T03:29:25.521Z,33.80
2018-05-25T03:31:53.964Z,32.47
2018-05-25T03:34:22.976Z,28.57
2018-05-25T03:36:51.237Z,27.83
2018-05-25T03:39:19.508Z,28.00
2018-05-25T03:41:47.759Z,23.67
2018-05-25T03:44:16.008Z,24.47
2018-05-25T03:46:44.289Z,21.43
2018-05-25T03:49:12.705Z,23.90
2018-05-25T03:51:40.945Z,22.70
2018-05-25T03:54:09.655Z,22.50
2018-05-25T03:56:37.908Z,22.67
2018-05-25T03:59:18.502Z,22.27
2018-05-25T04:02:02.761Z,21.23
2018-05-25T04:04:31.052Z,21.67
2018-05-25T04:06:59.301Z,23.30
2018-05-25T04:09:28.388Z,22.00
2018-05-25T04:11:56.877Z,23.30
2018-05-25T04:14:25.895Z,22.37
2018-05-25T04:16:54.143Z,19.37
2018-05-25T04:19:22.424Z,17.60
2018-05-25T04:21:50.680Z,15.30
2018-05-25T04:24:18.932Z,15.73
2018-05-25T04:26:47.220Z,14.73
2018-05-25T04:29:15.482Z,16.97
2018-05-25T04:31:45.007Z,17.73
2018-05-25T04:34:13.820Z,16.80
2018-05-25T04:36:43.039Z,18.30
2018-05-25T04:39:11.816Z,18.43
2018-05-25T04:41:40.084Z,18.90
2018-05-25T04:44:08.556Z,19.27
2018-05-25T04:46:37.406Z,20.30
2018-05-25T04:49:07.285Z,18.50
2018-05-25T04:51:35.516Z,19.97
2018-05-25T04:54:04.040Z,19.27
2018-05-25T04:56:32.603Z,19.47
2018-05-25T04:59:00.876Z,19.05
2018-05-25T05:01:29.931Z,19.13
2018-05-25T05:03:58.976Z,18.97
2018-05-25T05:06:27.224Z,21.17
2018-05-25T05:08:55.524Z,18.60
2018-05-25T05:11:23.796Z,19.10
2018-05-25T05:13:52.057Z,17.93
2018-05-25T05:16:20.316Z,18.33
2018-05-25T05:18:48.968Z,16.17
2018-05-25T05:21:17.208Z,16.47
2018-05-25T05:23:45.456Z,16.50
2018-05-25T05:26:13.799Z,16.50
2018-05-25T05:28:42.040Z,15.67
2018-05-25T05:31:10.294Z,17.53
2018-05-25T05:33:38.948Z,17.40
2018-05-25T05:36:07.199Z,18.20
2018-05-25T05:38:35.448Z,18.57
2018-05-25T05:41:04.133Z,19.27
2018-05-25T05:43:32.388Z,18.30
2018-05-25T05:46:01.422Z,15.73
2018-05-25T05:48:29.703Z,14.80
2018-05-25T05:50:58.685Z,14.70
2018-05-25T05:53:26.978Z,15.33
2018-05-25T05:55:55.248Z,14.80
2018-05-25T05:58:23.499Z,16.40
2018-05-25T06:00:51.764Z,15.07
2018-05-25T06:03:21.067Z,14.70
2018-05-25T06:05:49.494Z,13.10
2018-05-25T06:08:17.747Z,17.60
2018-05-25T06:10:46.022Z,17.40
2018-05-25T06:13:14.269Z,21.33
2018-05-25T06:15:42.527Z,21.93
2018-05-25T06:18:10.800Z,24.20
2018-05-25T06:20:39.827Z,25.20
2018-05-25T06:23:08.230Z,23.50
2018-05-25T06:25:37.020Z,21.03
2018-05-25T06:28:05.278Z,18.60
2018-05-25T06:30:33.704Z,19.47
2018-05-25T06:33:01.982Z,20.77
2018-05-25T06:35:30.233Z,22.47
2018-05-25T06:37:58.532Z,21.90
2018-05-25T06:40:26.797Z,21.40
2018-05-25T06:42:55.048Z,21.57
2018-05-25T06:45:23.307Z,22.13
2018-05-25T06:47:52.124Z,20.47
2018-05-25T06:50:20.402Z,21.40
2018-05-25T06:52:48.648Z,21.13
2018-05-25T06:55:16.927Z,22.00
2018-05-25T06:57:45.536Z,22.53
2018-05-25T07:00:13.775Z,20.90
2018-05-25T07:02:42.055Z,22.47
2018-05-25T07:05:11.306Z,21.43
2018-05-25T07:07:39.552Z,21.73
2018-05-25T07:10:08.768Z,21.90
2018-05-25T07:12:37.028Z,22.37
2018-05-25T07:15:05.286Z,22.10
2018-05-25T07:17:33.561Z,23.20
2018-05-25T07:20:02.577Z,21.27
2018-05-25T07:22:30.840Z,22.33
2018-05-25T07:24:59.119Z,22.57
2018-05-25T07:27:27.371Z,22.47
2018-05-25T07:29:56.404Z,23.23
2018-05-25T07:32:25.180Z,23.47
2018-05-25T07:34:53.447Z,22.47
2018-05-25T07:37:22.480Z,24.43
2018-05-25T07:39:50.871Z,23.57
2018-05-25T07:42:19.115Z,22.83
2018-05-25T07:44:47.377Z,24.73
2018-05-25T07:47:16.475Z,23.20
2018-05-25T07:49:44.731Z,23.30
2018-05-25T07:52:12.985Z,23.03
2018-05-25T07:54:41.352Z,22.47
2018-05-25T07:57:09.610Z,22.40
2018-05-25T07:59:37.863Z,21.93
2018-05-25T08:02:06.154Z,22.97
2018-05-25T08:04:34.408Z,23.03
2018-05-25T08:07:02.992Z,22.20
2018-05-25T08:09:32.035Z,20.87
2018-05-25T08:12:00.357Z,19.40
2018-05-25T08:14:28.562Z,20.57
2018-05-25T08:16:57.172Z,20.70
2018-05-25T08:19:25.426Z,21.00
2018-05-25T08:21:53.716Z,20.43
2018-05-25T08:24:22.301Z,21.40
2018-05-25T08:26:50.636Z,20.03
2018-05-25T08:29:19.662Z,21.27
2018-05-25T08:31:48.143Z,20.77
2018-05-25T08:34:16.396Z,19.63
2018-05-25T08:36:45.416Z,18.57
2018-05-25T08:39:13.748Z,19.07
2018-05-25T08:41:43.889Z,18.73
2018-05-25T08:44:12.144Z,19.50
2018-05-25T08:46:46.532Z,18.90
2018-05-25T08:49:14.949Z,18.07
2018-05-25T08:51:43.195Z,19.10
2018-05-25T08:54:11.572Z,18.03
2018-05-25T08:56:39.772Z,16.83
2018-05-25T08:59:08.801Z,17.50
2018-05-25T09:01:37.212Z,16.80
2018-05-25T09:04:05.469Z,15.83
2018-05-25T09:06:33.728Z,17.53
2018-05-25T09:09:02.325Z,16.40
2018-05-25T09:11:30.572Z,17.50
2018-05-25T09:13:58.836Z,17.07
2018-05-25T09:16:27.125Z,18.00
2018-05-25T09:18:56.149Z,18.50
2018-05-25T09:21:24.406Z,17.03
2018-05-25T09:23:52.888Z,17.40
2018-05-25T09:26:21.293Z,17.80
2018-05-25T09:28:49.551Z,15.70
2018-05-25T09:31:17.900Z,15.80
2018-05-25T09:33:46.156Z,14.53
2018-05-25T09:36:15.217Z,14.80
2018-05-25T09:38:43.461Z,14.93
2018-05-25T09:41:11.726Z,14.00
2018-05-25T09:43:39.985Z,14.53
2018-05-25T09:46:08.636Z,14.63
2018-05-25T09:48:36.897Z,12.43
2018-05-25T09:51:05.151Z,13.00
2018-05-25T09:53:33.425Z,14.03
2018-05-25T09:56:02.474Z,11.17
2018-05-25T09:58:30.700Z,13.50
2018-05-25T10:00:58.982Z,12.17
2018-05-25T10:03:28.004Z,11.57
2018-05-25T10:05:57.143Z,11.93
2018-05-25T10:08:26.932Z,11.07
2018-05-25T10:10:55.601Z,12.20
2018-05-25T10:13:23.848Z,11.63
2018-05-25T10:15:52.136Z,10.43
2018-05-25T10:18:20.388Z,9.80
2018-05-25T10:20:48.650Z,10.77
2018-05-25T10:23:16.938Z,9.10
2018-05-25T10:25:45.188Z,10.47
2018-05-25T10:28:13.465Z,11.10
2018-05-25T10:30:42.112Z,9.77
2018-05-25T10:33:10.364Z,11.40
2018-05-25T10:35:38.628Z,10.43
2018-05-25T10:38:07.461Z,9.80
2018-05-25T10:40:35.713Z,9.87
2018-05-25T10:43:04.764Z,10.10
2018-05-25T10:45:33.075Z,9.80
2018-05-25T10:48:01.306Z,9.67
2018-05-25T10:50:29.559Z,9.17
2018-05-25T10:52:58.516Z,7.83
2018-05-25T10:55:28.768Z,7.60
2018-05-25T10:57:57.004Z,7.80
2018-05-25T11:00:25.265Z,7.13
2018-05-25T11:02:54.297Z,6.23
2018-05-25T11:05:22.543Z,7.07
2018-05-25T11:07:50.861Z,7.50
2018-05-25T11:10:19.101Z,6.77
2018-05-25T11:12:48.344Z,7.40
2018-05-25T11:15:16.789Z,7.30
2018-05-25T11:17:45.040Z,6.60
2018-05-25T11:20:14.372Z,6.90
2018-05-25T11:22:43.429Z,5.80
2018-05-25T11:25:11.675Z,5.93
2018-05-25T11:27:39.917Z,6.47
2018-05-25T11:30:08.957Z,5.47
2018-05-25T11:32:37.272Z,5.30
2018-05-25T11:35:05.517Z,5.17
2018-05-25T11:37:34.053Z,6.07
2018-05-25T11:40:03.068Z,7.17
2018-05-25T11:42:31.318Z,5.07
2018-05-25T11:45:00.400Z,5.10
2018-05-25T11:47:28.650Z,6.00
2018-05-25T11:49:56.941Z,5.03
2018-05-25T11:52:25.356Z,6.70
2018-05-25T11:54:53.584Z,4.93
2018-05-25T11:57:21.824Z,5.83
2018-05-25T11:59:50.678Z,5.90
2018-05-25T12:02:18.924Z,5.57
2018-05-25T12:04:47.176Z,6.43
2018-05-25T12:07:15.452Z,5.00
2018-05-25T12:09:43.696Z,5.90
2018-05-25T12:12:11.940Z,4.90
2018-05-25T12:14:41.315Z,4.93
2018-05-25T12:17:09.557Z,4.90
2018-05-25T12:19:38.575Z,4.97
2018-05-25T12:22:07.544Z,5.53
2018-05-25T12:24:36.560Z,4.50
2018-05-25T12:27:05.223Z,5.37
2018-05-25T12:29:33.472Z,5.30
2018-05-25T12:32:02.657Z,4.30
2018-05-25T12:34:30.900Z,3.77
2018-05-25T12:36:59.352Z,3.70
2018-05-25T12:39:28.372Z,3.80
2018-05-25T12:41:56.648Z,3.40
2018-05-25T12:44:25.027Z,3.70
2018-05-25T12:46:53.274Z,3.67
2018-05-25T12:49:22.296Z,3.43
2018-05-25T12:51:53.092Z,3.10
2018-05-25T12:54:21.341Z,3.20
2018-05-25T12:56:49.589Z,2.40
2018-05-25T12:59:18.344Z,3.37
2018-05-25T13:01:46.905Z,2.80
2018-05-25T13:04:15.193Z,2.43
2018-05-25T13:06:44.893Z,2.60
2018-05-25T13:09:13.124Z,2.27
2018-05-25T13:11:41.381Z,2.80
2018-05-25T13:14:10.408Z,2.33
2018-05-25T13:16:38.956Z,2.47
2018-05-25T13:19:07.980Z,2.37
2018-05-25T13:21:36.256Z,2.40
2018-05-25T13:24:04.484Z,2.27
2018-05-25T13:26:32.733Z,2.07
2018-05-25T13:29:01.293Z,1.60
2018-05-25T13:31:29.533Z,2.17
2018-05-25T13:33:58.562Z,1.60
2018-05-25T13:36:26.836Z,2.00
2018-05-25T13:38:55.080Z,1.40
2018-05-25T13:41:24.597Z,1.83
2018-05-25T13:43:53.680Z,1.70
2018-05-25T13:46:21.928Z,2.20
2018-05-25T13:48:50.183Z,1.90
2018-05-25T13:51:18.756Z,2.07
2018-05-25T13:53:47.004Z,1.80
2018-05-25T13:56:15.249Z,2.00
2018-05-25T13:58:43.515Z,1.87
2018-05-25T14:01:11.761Z,1.80
2018-05-25T14:03:41.048Z,1.90
2018-05-25T14:06:09.677Z,1.80
2018-05-25T14:08:37.920Z,1.50
2018-05-25T14:11:06.185Z,1.80
2018-05-25T14:13:34.506Z,1.53
2018-05-25T14:16:02.757Z,1.67
2018-05-25T14:18:31.319Z,1.80
2018-05-25T14:20:59.596Z,1.80
2018-05-25T14:23:27.867Z,2.20
2018-05-25T14:25:56.117Z,1.73
2018-05-25T14:28:24.396Z,2.10
2018-05-25T14:30:53.554Z,2.00
2018-05-25T14:33:21.794Z,2.30
2018-05-25T14:35:50.512Z,2.90
2018-05-25T14:38:19.728Z,2.43
2018-05-25T14:40:47.991Z,2.10
2018-05-25T14:43:16.253Z,2.93
2018-05-25T14:45:46.787Z,2.67
2018-05-25T14:48:15.491Z,2.23
2018-05-25T14:50:43.809Z,2.47
2018-05-25T14:53:12.826Z,3.77
2018-05-25T14:55:41.158Z,3.67
2018-05-25T14:58:09.489Z,2.60
2018-05-25T15:00:38.463Z,3.20
2018-05-25T15:03:06.712Z,2.60
2018-05-25T15:05:34.998Z,2.53
2018-05-25T15:08:05.200Z,2.83
2018-05-25T15:10:33.459Z,2.87
2018-05-25T15:13:01.740Z,2.40
2018-05-25T15:15:30.021Z,2.90
2018-05-25T15:17:58.264Z,2.50
2018-05-25T15:20:26.856Z,2.80
2018-05-25T15:22:56.393Z,3.10
2018-05-25T15:25:24.772Z,3.70
2018-05-25T15:27:54.036Z,3.00
2018-05-25T15:30:22.292Z,3.50
2018-05-25T15:32:50.551Z,3.30
2018-05-25T15:35:19.668Z,3.10
2018-05-25T15:37:48.084Z,3.53
2018-05-25T15:40:16.323Z,3.70
2018-05-25T15:42:44.683Z,3.07
2018-05-25T15:45:13.035Z,3.53
2018-05-25T15:47:41.405Z,3.50
2018-05-25T15:50:09.980Z,3.50
2018-05-25T15:52:38.208Z,3.50
2018-05-25T15:55:07.228Z,3.07
2018-05-25T15:57:35.569Z,4.00
2018-05-25T16:00:04.576Z,3.20
2018-05-25T16:02:33.017Z,2.93
2018-05-25T16:05:02.068Z,3.20
2018-05-25T16:07:30.315Z,3.60
2018-05-25T16:09:59.559Z,3.73
2018-05-25T16:12:29.532Z,3.37
2018-05-25T16:14:59.728Z,3.83
2018-05-25T16:17:28.121Z,3.67
2018-05-25T16:19:57.129Z,3.60
2018-05-25T16:22:26.157Z,3.33
2018-05-25T16:24:54.468Z,3.43
2018-05-25T16:27:22.936Z,3.73
2018-05-25T16:29:51.182Z,3.40
2018-05-25T16:32:19.435Z,3.77
2018-05-25T16:34:47.708Z,3.40
2018-05-25T16:37:16.728Z,3.53
2018-05-25T16:39:44.987Z,3.63
2018-05-25T16:42:13.452Z,3.43
2018-05-25T16:44:42.412Z,4.53
2018-05-25T16:47:10.839Z,2.83
2018-05-25T16:49:39.309Z,3.10
2018-05-25T16:52:08.316Z,3.80
2018-05-25T16:54:36.564Z,4.10
2018-05-25T16:57:04.957Z,3.40
2018-05-25T16:59:33.965Z,3.10
2018-05-25T17:02:02.477Z,3.93
2018-05-25T17:04:30.749Z,3.50
2018-05-25T17:06:59.020Z,3.40
2018-05-25T17:09:27.447Z,2.97
2018-05-25T17:11:55.897Z,3.03
2018-05-25T17:14:24.140Z,3.30
2018-05-25T17:16:53.492Z,3.80
2018-05-25T17:19:22.242Z,3.30
2018-05-25T17:21:51.988Z,4.00
2018-05-25T17:24:24.780Z,3.00
2018-05-25T17:26:53.160Z,2.93
2018-05-25T17:29:21.540Z,2.80
2018-05-25T17:31:51.221Z,2.93
2018-05-25T17:34:19.529Z,2.97
2018-05-25T17:36:47.906Z,3.00
2018-05-25T17:39:16.177Z,3.53
2018-05-25T17:41:44.664Z,3.30
2018-05-25T17:44:13.726Z,3.30
2018-05-25T17:46:43.004Z,3.37
2018-05-25T17:49:11.329Z,3.67
2018-05-25T17:51:39.574Z,3.50
2018-05-25T17:54:08.173Z,3.17
2018-05-25T17:56:36.471Z,3.17
2018-05-25T17:59:05.047Z,3.27
2018-05-25T18:01:33.297Z,3.47
2018-05-25T18:04:01.613Z,3.90
2018-05-25T18:06:29.862Z,3.57
2018-05-25T18:08:58.154Z,3.30
2018-05-25T18:11:26.380Z,4.13
2018-05-25T18:13:54.824Z,3.57
2018-05-25T18:16:23.925Z,3.93
2018-05-25T18:18:53.112Z,3.50
2018-05-25T18:21:21.810Z,4.03
2018-05-25T18:23:50.088Z,4.23
2018-05-25T18:26:18.569Z,3.37
2018-05-25T18:28:46.829Z,3.47
2018-05-25T18:31:15.207Z,3.50
2018-05-25T18:33:43.563Z,4.07
2018-05-25T18:36:11.797Z,4.10
2018-05-25T18:38:41.156Z,4.20
2018-05-25T18:41:09.406Z,4.07
2018-05-25T18:43:37.844Z,4.50
2018-05-25T18:46:06.564Z,4.20
2018-05-25T18:48:35.014Z,4.80
2018-05-25T18:51:03.249Z,5.10
2018-05-25T18:53:32.017Z,5.77
2018-05-25T18:56:00.290Z,4.73
2018-05-25T18:58:29.037Z,4.50
2018-05-25T19:00:57.413Z,5.00
2018-05-25T19:03:25.780Z,5.33
2018-05-25T19:05:54.252Z,5.20
2018-05-25T19:08:22.540Z,5.10
2018-05-25T19:10:51.848Z,5.07
2018-05-25T19:13:20.118Z,5.37
2018-05-25T19:15:48.384Z,4.83
2018-05-25T19:18:16.648Z,5.60
2018-05-25T19:20:44.884Z,5.83
2018-05-25T19:23:13.468Z,4.83
2018-05-25T19:25:42.480Z,4.40
2018-05-25T19:28:10.720Z,4.73
2018-05-25T19:30:39.001Z,5.20
2018-05-25T19:33:08.180Z,5.47
2018-05-25T19:35:36.750Z,5.73
2018-05-25T19:38:05.002Z,6.00
2018-05-25T19:40:33.250Z,5.93
2018-05-25T19:43:01.908Z,5.50
2018-05-25T19:45:30.464Z,5.20
2018-05-25T19:47:58.746Z,6.00
2018-05-25T19:50:26.983Z,6.47
2018-05-25T19:52:55.286Z,5.00
2018-05-25T19:55:24.261Z,6.13
2018-05-25T19:57:52.614Z,6.10
2018-05-25T20:00:21.648Z,5.67
2018-05-25T20:02:50.884Z,6.20
2018-05-25T20:05:19.128Z,5.90
2018-05-25T20:07:47.488Z,7.07
2018-05-25T20:10:15.731Z,6.20
2018-05-25T20:12:45.005Z,6.77
2018-05-25T20:15:13.272Z,6.97
2018-05-25T20:17:41.668Z,6.73
2018-05-25T20:20:09.900Z,6.57
2018-05-25T20:22:38.579Z,7.30
2018-05-25T20:25:06.837Z,6.67
2018-05-25T20:27:35.077Z,7.17
2018-05-25T20:30:03.754Z,6.23
2018-05-25T20:32:32.965Z,6.50
2018-05-25T20:35:01.655Z,6.90
2018-05-25T20:37:30.220Z,6.23
2018-05-25T20:39:58.453Z,6.60
2018-05-25T20:42:26.785Z,6.50
2018-05-25T20:44:55.081Z,8.50
2018-05-25T20:47:23.430Z,8.50
2018-05-25T20:49:52.837Z,7.80
2018-05-25T20:52:21.217Z,7.70
2018-05-25T20:54:49.796Z,8.17
2018-05-25T20:57:18.037Z,8.97
2018-05-25T20:59:46.404Z,7.70
2018-05-25T21:02:15.403Z,8.13
2018-05-25T21:04:43.704Z,9.07
2018-05-25T21:07:12.690Z,8.70
2018-05-25T21:09:41.264Z,9.63
2018-05-25T21:12:10.120Z,9.87
2018-05-25T21:14:39.234Z,9.23
2018-05-25T21:17:08.296Z,7.70
2018-05-25T21:19:36.553Z,7.50
2018-05-25T21:22:04.937Z,8.33
2018-05-25T21:24:33.538Z,6.97
2018-05-25T21:27:02.659Z,7.30
2018-05-25T21:29:30.938Z,7.53
2018-05-25T21:31:59.957Z,9.03
2018-05-25T21:34:28.584Z,9.60
2018-05-25T21:36:58.705Z,8.93
2018-05-25T21:39:28.476Z,8.60
2018-05-25T21:41:56.799Z,9.30
2018-05-25T21:44:25.073Z,9.57
2018-05-25T21:46:53.556Z,10.00
2018-05-25T21:49:22.434Z,10.40
2018-05-25T21:51:50.725Z,11.53
2018-05-25T21:54:19.193Z,10.20
2018-05-25T21:56:48.328Z,10.00
2018-05-25T21:59:18.617Z,10.33
2018-05-25T22:01:46.868Z,9.87
2018-05-25T22:04:15.153Z,10.00
2018-05-25T22:06:43.473Z,10.20
2018-05-25T22:09:11.723Z,10.70
2018-05-25T22:11:39.990Z,10.20
2018-05-25T22:14:09.072Z,10.70
2018-05-25T22:16:37.342Z,10.57
2018-05-25T22:19:05.593Z,10.10
2018-05-25T22:21:34.017Z,10.47
2018-05-25T22:24:02.276Z,11.83
2018-05-25T22:26:30.725Z,9.30
2018-05-25T22:29:00.768Z,9.60
2018-05-25T22:31:29.033Z,9.17
2018-05-25T22:33:57.401Z,9.13
2018-05-25T22:36:27.613Z,10.07
2018-05-25T22:38:57.487Z,10.03
2018-05-25T22:41:25.732Z,9.20
2018-05-25T22:44:05.913Z,9.50
2018-05-25T22:46:46.028Z,10.03
2018-05-25T22:49:26.108Z,10.77
2018-05-25T22:52:06.273Z,10.23
2018-05-25T22:54:40.260Z,9.83
2018-05-25T22:57:08.525Z,9.40
2018-05-25T22:59:37.569Z,9.43
2018-05-25T23:02:07.205Z,9.50
2018-05-25T23:04:35.452Z,9.73
2018-05-25T23:07:03.712Z,10.47
2018-05-25T23:09:31.988Z,9.80
2018-05-25T23:12:00.299Z,9.87
2018-05-25T23:14:29.307Z,9.33
2018-05-25T23:16:57.600Z,9.10
2018-05-25T23:19:26.121Z,9.23
2018-05-25T23:21:54.377Z,8.87
2018-05-25T23:24:22.895Z,8.70
2018-05-25T23:26:51.692Z,9.67
2018-05-25T23:29:19.941Z,9.50
2018-05-25T23:31:48.216Z,9.00
2018-05-25T23:34:16.469Z,9.47
2018-05-25T23:36:44.712Z,8.87
2018-05-25T23:39:12.990Z,9.50
2018-05-25T23:41:41.242Z,9.47
2018-05-25T23:44:09.517Z,8.90
2018-05-25T23:46:38.689Z,8.97
2018-05-25T23:49:06.940Z,8.70
2018-05-25T23:51:35.188Z,8.33
2018-05-25T23:54:03.458Z,8.17
2018-05-25T23:56:31.704Z,8.17
2018-05-25T23:58:59.969Z,9.27
